sensor_id;sensor_type;location;lat;lon;timestamp;P1;durP1;ratioP1;P2;durP2;ratioP2
16346;SDS011;8283;48.504;13.734;2023-12-14T00:00:20;1.92;;;1.42;;
16346;SDS011;8283;48.504;13.734;2023-12-14T00:02:40;3.17;;;1.47;;
16346;SDS011;8283;48.504;13.734;2023-12-14T00:04:59;2.95;;;1.80;;
16346;SDS011;8283;48.504;13.734;2023-12-14T00:07:19;2.38;;;1.65;;
16346;SDS011;8283;48.504;13.734;2023-12-14T00:09:38;1.70;;;1.42;;
16346;SDS011;8283;48.504;13.734;2023-12-14T00:11:58;2.03;;;1.58;;
16346;SDS011;8283;48.504;13.734;2023-12-14T00:14:17;2.17;;;1.85;;
16346;SDS011;8283;48.504;13.734;2023-12-14T00:16:36;2.58;;;1.90;;
16346;SDS011;8283;48.504;13.734;2023-12-14T00:18:56;2.50;;;1.80;;
16346;SDS011;8283;48.504;13.734;2023-12-14T00:21:15;3.60;;;2.15;;
16346;SDS011;8283;48.504;13.734;2023-12-14T00:23:34;2.55;;;2.22;;
16346;SDS011;8283;48.504;13.734;2023-12-14T00:25:53;3.70;;;2.05;;
16346;SDS011;8283;48.504;13.734;2023-12-14T00:28:13;2.25;;;1.80;;
16346;SDS011;8283;48.504;13.734;2023-12-14T00:30:32;1.92;;;1.52;;
16346;SDS011;8283;48.504;13.734;2023-12-14T00:32:51;2.13;;;1.70;;
16346;SDS011;8283;48.504;13.734;2023-12-14T00:35:11;2.03;;;1.73;;
16346;SDS011;8283;48.504;13.734;2023-12-14T00:37:30;1.85;;;1.67;;
16346;SDS011;8283;48.504;13.734;2023-12-14T00:39:49;2.60;;;1.83;;
16346;SDS011;8283;48.504;13.734;2023-12-14T00:42:08;3.03;;;1.70;;
16346;SDS011;8283;48.504;13.734;2023-12-14T00:44:28;2.10;;;1.50;;
16346;SDS011;8283;48.504;13.734;2023-12-14T00:46:48;1.88;;;1.40;;
16346;SDS011;8283;48.504;13.734;2023-12-14T00:49:07;1.73;;;1.40;;
16346;SDS011;8283;48.504;13.734;2023-12-14T00:51:27;1.92;;;1.50;;
16346;SDS011;8283;48.504;13.734;2023-12-14T00:53:46;1.15;;;1.05;;
16346;SDS011;8283;48.504;13.734;2023-12-14T00:56:07;2.67;;;1.55;;
16346;SDS011;8283;48.504;13.734;2023-12-14T00:58:27;1.65;;;1.38;;
16346;SDS011;8283;48.504;13.734;2023-12-14T01:00:46;1.67;;;1.15;;
16346;SDS011;8283;48.504;13.734;2023-12-14T01:03:05;1.67;;;1.58;;
16346;SDS011;8283;48.504;13.734;2023-12-14T01:05:25;1.90;;;1.30;;
16346;SDS011;8283;48.504;13.734;2023-12-14T01:07:44;2.83;;;1.58;;
16346;SDS011;8283;48.504;13.734;2023-12-14T01:10:05;1.98;;;1.55;;
16346;SDS011;8283;48.504;13.734;2023-12-14T01:12:24;3.20;;;1.88;;
16346;SDS011;8283;48.504;13.734;2023-12-14T01:14:44;1.90;;;1.60;;
16346;SDS011;8283;48.504;13.734;2023-12-14T01:17:03;1.95;;;1.45;;
16346;SDS011;8283;48.504;13.734;2023-12-14T01:19:23;1.98;;;1.77;;
16346;SDS011;8283;48.504;13.734;2023-12-14T01:24:03;2.30;;;1.77;;
16346;SDS011;8283;48.504;13.734;2023-12-14T01:26:23;1.67;;;1.58;;
16346;SDS011;8283;48.504;13.734;2023-12-14T01:28:43;1.92;;;1.63;;
16346;SDS011;8283;48.504;13.734;2023-12-14T01:31:02;2.08;;;1.52;;
16346;SDS011;8283;48.504;13.734;2023-12-14T01:33:21;2.63;;;1.60;;
16346;SDS011;8283;48.504;13.734;2023-12-14T01:35:41;1.90;;;1.48;;
16346;SDS011;8283;48.504;13.734;2023-12-14T01:38:00;1.63;;;1.52;;
16346;SDS011;8283;48.504;13.734;2023-12-14T01:40:19;2.38;;;1.70;;
16346;SDS011;8283;48.504;13.734;2023-12-14T01:42:39;2.25;;;1.80;;
16346;SDS011;8283;48.504;13.734;2023-12-14T01:44:58;3.47;;;1.60;;
16346;SDS011;8283;48.504;13.734;2023-12-14T01:47:18;2.35;;;1.90;;
16346;SDS011;8283;48.504;13.734;2023-12-14T01:49:37;1.75;;;1.60;;
16346;SDS011;8283;48.504;13.734;2023-12-14T01:51:57;1.55;;;1.25;;
16346;SDS011;8283;48.504;13.734;2023-12-14T01:54:17;1.55;;;1.40;;
16346;SDS011;8283;48.504;13.734;2023-12-14T01:56:36;1.40;;;1.20;;
16346;SDS011;8283;48.504;13.734;2023-12-14T01:58:55;2.15;;;1.73;;
16346;SDS011;8283;48.504;13.734;2023-12-14T02:01:57;1.60;;;1.27;;
16346;SDS011;8283;48.504;13.734;2023-12-14T02:04:11;1.60;;;1.30;;
16346;SDS011;8283;48.504;13.734;2023-12-14T02:06:31;1.58;;;0.98;;
16346;SDS011;8283;48.504;13.734;2023-12-14T02:08:51;1.13;;;1.02;;
16346;SDS011;8283;48.504;13.734;2023-12-14T02:11:11;1.15;;;0.90;;
16346;SDS011;8283;48.504;13.734;2023-12-14T02:13:31;0.88;;;0.82;;
16346;SDS011;8283;48.504;13.734;2023-12-14T02:15:51;2.45;;;0.90;;
16346;SDS011;8283;48.504;13.734;2023-12-14T02:18:12;2.45;;;0.90;;
16346;SDS011;8283;48.504;13.734;2023-12-14T02:20:31;1.13;;;0.90;;
16346;SDS011;8283;48.504;13.734;2023-12-14T02:22:51;1.35;;;1.10;;
16346;SDS011;8283;48.504;13.734;2023-12-14T02:25:11;0.98;;;0.90;;
16346;SDS011;8283;48.504;13.734;2023-12-14T02:27:31;1.13;;;1.02;;
16346;SDS011;8283;48.504;13.734;2023-12-14T02:29:50;1.05;;;0.95;;
16346;SDS011;8283;48.504;13.734;2023-12-14T02:32:10;1.25;;;1.15;;
16346;SDS011;8283;48.504;13.734;2023-12-14T02:34:29;1.00;;;0.90;;
16346;SDS011;8283;48.504;13.734;2023-12-14T02:36:48;1.08;;;1.00;;
16346;SDS011;8283;48.504;13.734;2023-12-14T02:39:07;1.27;;;1.15;;
16346;SDS011;8283;48.504;13.734;2023-12-14T02:41:26;1.58;;;1.35;;
16346;SDS011;8283;48.504;13.734;2023-12-14T02:43:46;1.77;;;1.60;;
16346;SDS011;8283;48.504;13.734;2023-12-14T02:46:06;1.70;;;1.15;;
16346;SDS011;8283;48.504;13.734;2023-12-14T02:48:25;1.70;;;1.40;;
16346;SDS011;8283;48.504;13.734;2023-12-14T02:50:44;1.90;;;1.27;;
16346;SDS011;8283;48.504;13.734;2023-12-14T02:53:04;1.15;;;1.05;;
16346;SDS011;8283;48.504;13.734;2023-12-14T02:55:23;1.20;;;1.10;;
16346;SDS011;8283;48.504;13.734;2023-12-14T02:57:42;1.17;;;1.08;;
16346;SDS011;8283;48.504;13.734;2023-12-14T03:00:03;1.10;;;1.00;;
16346;SDS011;8283;48.504;13.734;2023-12-14T03:02:23;1.48;;;1.02;;
16346;SDS011;8283;48.504;13.734;2023-12-14T03:04:42;1.42;;;1.10;;
16346;SDS011;8283;48.504;13.734;2023-12-14T03:07:02;1.13;;;1.02;;
16346;SDS011;8283;48.504;13.734;2023-12-14T03:09:22;1.20;;;1.02;;
16346;SDS011;8283;48.504;13.734;2023-12-14T03:11:41;1.73;;;1.20;;
16346;SDS011;8283;48.504;13.734;2023-12-14T03:14:00;0.85;;;0.85;;
16346;SDS011;8283;48.504;13.734;2023-12-14T03:16:19;1.50;;;1.02;;
16346;SDS011;8283;48.504;13.734;2023-12-14T03:18:39;1.40;;;1.10;;
16346;SDS011;8283;48.504;13.734;2023-12-14T03:20:58;1.13;;;1.02;;
16346;SDS011;8283;48.504;13.734;2023-12-14T03:23:18;1.13;;;1.00;;
16346;SDS011;8283;48.504;13.734;2023-12-14T03:25:37;2.33;;;1.10;;
16346;SDS011;8283;48.504;13.734;2023-12-14T03:27:56;1.45;;;1.20;;
16346;SDS011;8283;48.504;13.734;2023-12-14T03:30:15;1.50;;;1.35;;
16346;SDS011;8283;48.504;13.734;2023-12-14T03:32:35;1.80;;;1.52;;
16346;SDS011;8283;48.504;13.734;2023-12-14T03:34:54;2.22;;;1.83;;
16346;SDS011;8283;48.504;13.734;2023-12-14T03:37:14;4.32;;;2.05;;
16346;SDS011;8283;48.504;13.734;2023-12-14T03:39:33;2.83;;;2.40;;
16346;SDS011;8283;48.504;13.734;2023-12-14T03:41:52;3.03;;;2.17;;
16346;SDS011;8283;48.504;13.734;2023-12-14T03:44:12;4.82;;;2.40;;
16346;SDS011;8283;48.504;13.734;2023-12-14T03:46:31;2.35;;;1.77;;
16346;SDS011;8283;48.504;13.734;2023-12-14T03:48:50;2.42;;;1.60;;
16346;SDS011;8283;48.504;13.734;2023-12-14T03:51:10;2.38;;;2.05;;
16346;SDS011;8283;48.504;13.734;2023-12-14T03:53:29;3.33;;;2.03;;
16346;SDS011;8283;48.504;13.734;2023-12-14T03:55:49;3.47;;;2.22;;
16346;SDS011;8283;48.504;13.734;2023-12-14T03:58:08;3.50;;;2.00;;
16346;SDS011;8283;48.504;13.734;2023-12-14T04:00:27;2.25;;;1.88;;
16346;SDS011;8283;48.504;13.734;2023-12-14T04:02:46;3.45;;;2.75;;
16346;SDS011;8283;48.504;13.734;2023-12-14T04:05:06;3.88;;;2.80;;
16346;SDS011;8283;48.504;13.734;2023-12-14T04:07:27;4.45;;;3.00;;
16346;SDS011;8283;48.504;13.734;2023-12-14T04:09:47;3.72;;;2.72;;
16346;SDS011;8283;48.504;13.734;2023-12-14T04:12:07;3.42;;;2.60;;
16346;SDS011;8283;48.504;13.734;2023-12-14T04:14:26;2.55;;;2.10;;
16346;SDS011;8283;48.504;13.734;2023-12-14T04:16:45;3.20;;;2.38;;
16346;SDS011;8283;48.504;13.734;2023-12-14T04:19:05;3.28;;;2.10;;
16346;SDS011;8283;48.504;13.734;2023-12-14T04:21:29;4.00;;;2.22;;
16346;SDS011;8283;48.504;13.734;2023-12-14T04:23:48;3.05;;;2.20;;
16346;SDS011;8283;48.504;13.734;2023-12-14T04:26:07;2.97;;;2.05;;
16346;SDS011;8283;48.504;13.734;2023-12-14T04:28:28;3.33;;;2.40;;
16346;SDS011;8283;48.504;13.734;2023-12-14T04:30:48;4.30;;;2.88;;
16346;SDS011;8283;48.504;13.734;2023-12-14T04:33:07;4.30;;;2.83;;
16346;SDS011;8283;48.504;13.734;2023-12-14T04:35:26;3.42;;;2.55;;
16346;SDS011;8283;48.504;13.734;2023-12-14T04:37:45;3.20;;;2.40;;
16346;SDS011;8283;48.504;13.734;2023-12-14T04:40:05;3.53;;;2.53;;
16346;SDS011;8283;48.504;13.734;2023-12-14T04:44:45;3.20;;;1.90;;
16346;SDS011;8283;48.504;13.734;2023-12-14T04:47:04;3.28;;;2.22;;
16346;SDS011;8283;48.504;13.734;2023-12-14T04:49:23;2.47;;;1.98;;
16346;SDS011;8283;48.504;13.734;2023-12-14T04:51:42;2.63;;;2.00;;
16346;SDS011;8283;48.504;13.734;2023-12-14T04:54:02;2.88;;;2.05;;
16346;SDS011;8283;48.504;13.734;2023-12-14T04:56:22;3.57;;;1.97;;
16346;SDS011;8283;48.504;13.734;2023-12-14T04:58:42;3.45;;;2.20;;
16346;SDS011;8283;48.504;13.734;2023-12-14T05:01:01;2.33;;;1.85;;
16346;SDS011;8283;48.504;13.734;2023-12-14T05:03:21;2.88;;;2.17;;
16346;SDS011;8283;48.504;13.734;2023-12-14T05:05:41;3.00;;;2.10;;
16346;SDS011;8283;48.504;13.734;2023-12-14T05:08:00;2.58;;;2.13;;
16346;SDS011;8283;48.504;13.734;2023-12-14T05:10:19;2.47;;;1.80;;
16346;SDS011;8283;48.504;13.734;2023-12-14T05:12:39;2.30;;;1.90;;
16346;SDS011;8283;48.504;13.734;2023-12-14T05:14:58;2.40;;;1.58;;
16346;SDS011;8283;48.504;13.734;2023-12-14T05:17:17;2.63;;;1.90;;
16346;SDS011;8283;48.504;13.734;2023-12-14T05:19:37;3.78;;;1.80;;
16346;SDS011;8283;48.504;13.734;2023-12-14T05:21:56;2.47;;;1.80;;
16346;SDS011;8283;48.504;13.734;2023-12-14T05:24:15;2.05;;;1.85;;
16346;SDS011;8283;48.504;13.734;2023-12-14T05:26:34;2.55;;;2.08;;
16346;SDS011;8283;48.504;13.734;2023-12-14T05:28:53;4.03;;;3.05;;
16346;SDS011;8283;48.504;13.734;2023-12-14T05:31:13;3.28;;;1.95;;
16346;SDS011;8283;48.504;13.734;2023-12-14T05:33:33;2.35;;;1.88;;
16346;SDS011;8283;48.504;13.734;2023-12-14T05:35:55;2.42;;;1.90;;
16346;SDS011;8283;48.504;13.734;2023-12-14T05:38:15;2.15;;;1.77;;
16346;SDS011;8283;48.504;13.734;2023-12-14T05:40:34;2.35;;;1.83;;
16346;SDS011;8283;48.504;13.734;2023-12-14T05:42:53;1.77;;;1.50;;
16346;SDS011;8283;48.504;13.734;2023-12-14T05:45:14;2.03;;;1.42;;
16346;SDS011;8283;48.504;13.734;2023-12-14T05:47:33;1.67;;;1.40;;
16346;SDS011;8283;48.504;13.734;2023-12-14T05:49:53;2.05;;;1.52;;
16346;SDS011;8283;48.504;13.734;2023-12-14T05:52:12;1.70;;;1.60;;
16346;SDS011;8283;48.504;13.734;2023-12-14T05:54:31;2.15;;;1.63;;
16346;SDS011;8283;48.504;13.734;2023-12-14T05:56:51;2.38;;;1.60;;
16346;SDS011;8283;48.504;13.734;2023-12-14T05:59:10;2.28;;;1.75;;
16346;SDS011;8283;48.504;13.734;2023-12-14T06:01:29;2.15;;;1.80;;
16346;SDS011;8283;48.504;13.734;2023-12-14T06:03:49;2.95;;;1.58;;
16346;SDS011;8283;48.504;13.734;2023-12-14T06:06:09;1.98;;;1.73;;
16346;SDS011;8283;48.504;13.734;2023-12-14T06:08:28;2.10;;;1.67;;
16346;SDS011;8283;48.504;13.734;2023-12-14T06:10:47;1.90;;;1.52;;
16346;SDS011;8283;48.504;13.734;2023-12-14T06:13:07;2.03;;;1.63;;
16346;SDS011;8283;48.504;13.734;2023-12-14T06:15:26;2.05;;;1.73;;
16346;SDS011;8283;48.504;13.734;2023-12-14T06:17:46;2.22;;;1.85;;
16346;SDS011;8283;48.504;13.734;2023-12-14T06:20:06;1.85;;;1.65;;
16346;SDS011;8283;48.504;13.734;2023-12-14T06:22:28;2.45;;;1.83;;
16346;SDS011;8283;48.504;13.734;2023-12-14T06:24:48;2.83;;;2.00;;
16346;SDS011;8283;48.504;13.734;2023-12-14T06:27:07;2.35;;;2.03;;
16346;SDS011;8283;48.504;13.734;2023-12-14T06:29:26;3.13;;;2.55;;
16346;SDS011;8283;48.504;13.734;2023-12-14T06:31:45;2.58;;;2.22;;
16346;SDS011;8283;48.504;13.734;2023-12-14T06:34:05;2.65;;;2.25;;
16346;SDS011;8283;48.504;13.734;2023-12-14T06:36:24;4.38;;;2.78;;
16346;SDS011;8283;48.504;13.734;2023-12-14T06:38:48;3.45;;;3.08;;
16346;SDS011;8283;48.504;13.734;2023-12-14T06:41:07;2.72;;;2.40;;
16346;SDS011;8283;48.504;13.734;2023-12-14T06:43:27;3.05;;;2.42;;
16346;SDS011;8283;48.504;13.734;2023-12-14T06:45:46;5.18;;;2.83;;
16346;SDS011;8283;48.504;13.734;2023-12-14T06:48:06;3.17;;;2.72;;
16346;SDS011;8283;48.504;13.734;2023-12-14T06:50:25;2.85;;;2.47;;
16346;SDS011;8283;48.504;13.734;2023-12-14T06:52:44;3.20;;;2.70;;
16346;SDS011;8283;48.504;13.734;2023-12-14T06:55:04;2.65;;;2.30;;
16346;SDS011;8283;48.504;13.734;2023-12-14T06:57:23;2.53;;;2.20;;
16346;SDS011;8283;48.504;13.734;2023-12-14T06:59:43;2.60;;;2.10;;
16346;SDS011;8283;48.504;13.734;2023-12-14T07:02:03;1.85;;;1.60;;
16346;SDS011;8283;48.504;13.734;2023-12-14T07:04:22;1.92;;;1.60;;
16346;SDS011;8283;48.504;13.734;2023-12-14T07:06:41;2.50;;;1.70;;
16346;SDS011;8283;48.504;13.734;2023-12-14T07:09:01;2.67;;;1.75;;
16346;SDS011;8283;48.504;13.734;2023-12-14T07:11:21;1.92;;;1.58;;
16346;SDS011;8283;48.504;13.734;2023-12-14T07:13:40;1.70;;;1.25;;
16346;SDS011;8283;48.504;13.734;2023-12-14T07:15:59;1.70;;;1.50;;
16346;SDS011;8283;48.504;13.734;2023-12-14T07:18:18;1.40;;;1.30;;
16346;SDS011;8283;48.504;13.734;2023-12-14T07:20:37;2.17;;;1.20;;
16346;SDS011;8283;48.504;13.734;2023-12-14T07:22:57;1.63;;;1.23;;
16346;SDS011;8283;48.504;13.734;2023-12-14T07:25:17;1.20;;;1.10;;
16346;SDS011;8283;48.504;13.734;2023-12-14T07:27:36;1.85;;;1.25;;
16346;SDS011;8283;48.504;13.734;2023-12-14T07:29:56;1.20;;;1.10;;
16346;SDS011;8283;48.504;13.734;2023-12-14T07:32:15;1.80;;;1.48;;
16346;SDS011;8283;48.504;13.734;2023-12-14T07:34:35;2.65;;;1.42;;
16346;SDS011;8283;48.504;13.734;2023-12-14T07:36:54;2.10;;;1.10;;
16346;SDS011;8283;48.504;13.734;2023-12-14T07:39:14;1.65;;;1.08;;
16346;SDS011;8283;48.504;13.734;2023-12-14T07:41:33;1.20;;;1.10;;
16346;SDS011;8283;48.504;13.734;2023-12-14T07:43:52;1.65;;;1.20;;
16346;SDS011;8283;48.504;13.734;2023-12-14T07:46:11;2.03;;;1.30;;
16346;SDS011;8283;48.504;13.734;2023-12-14T07:48:31;1.05;;;0.90;;
16346;SDS011;8283;48.504;13.734;2023-12-14T07:50:50;0.93;;;0.70;;
16346;SDS011;8283;48.504;13.734;2023-12-14T07:53:10;0.40;;;0.40;;
16346;SDS011;8283;48.504;13.734;2023-12-14T07:55:30;0.50;;;0.45;;
16346;SDS011;8283;48.504;13.734;2023-12-14T07:57:49;1.10;;;0.75;;
16346;SDS011;8283;48.504;13.734;2023-12-14T08:00:09;2.38;;;0.80;;
16346;SDS011;8283;48.504;13.734;2023-12-14T08:02:29;1.30;;;1.17;;
16346;SDS011;8283;48.504;13.734;2023-12-14T08:04:48;1.23;;;1.05;;
16346;SDS011;8283;48.504;13.734;2023-12-14T08:07:08;0.63;;;0.63;;
16346;SDS011;8283;48.504;13.734;2023-12-14T08:09:27;2.47;;;0.50;;
16346;SDS011;8283;48.504;13.734;2023-12-14T08:11:46;0.47;;;0.47;;
16346;SDS011;8283;48.504;13.734;2023-12-14T08:14:06;0.40;;;0.30;;
16346;SDS011;8283;48.504;13.734;2023-12-14T08:16:25;0.80;;;0.50;;
16346;SDS011;8283;48.504;13.734;2023-12-14T08:18:44;0.30;;;0.20;;
16346;SDS011;8283;48.504;13.734;2023-12-14T08:21:05;1.55;;;0.45;;
16346;SDS011;8283;48.504;13.734;2023-12-14T08:23:25;0.50;;;0.30;;
16346;SDS011;8283;48.504;13.734;2023-12-14T08:25:46;0.30;;;0.30;;
16346;SDS011;8283;48.504;13.734;2023-12-14T08:28:05;0.30;;;0.30;;
16346;SDS011;8283;48.504;13.734;2023-12-14T08:30:25;0.25;;;0.25;;
16346;SDS011;8283;48.504;13.734;2023-12-14T08:32:44;0.40;;;0.38;;
16346;SDS011;8283;48.504;13.734;2023-12-14T08:35:03;0.40;;;0.40;;
16346;SDS011;8283;48.504;13.734;2023-12-14T08:37:23;4.40;;;0.73;;
16346;SDS011;8283;48.504;13.734;2023-12-14T08:39:42;0.57;;;0.57;;
16346;SDS011;8283;48.504;13.734;2023-12-14T08:42:02;0.75;;;0.60;;
16346;SDS011;8283;48.504;13.734;2023-12-14T08:44:21;1.67;;;1.13;;
16346;SDS011;8283;48.504;13.734;2023-12-14T08:46:41;1.00;;;0.90;;
16346;SDS011;8283;48.504;13.734;2023-12-14T08:49:01;1.83;;;1.15;;
16346;SDS011;8283;48.504;13.734;2023-12-14T08:51:21;0.90;;;0.77;;
16346;SDS011;8283;48.504;13.734;2023-12-14T08:53:40;1.10;;;0.80;;
16346;SDS011;8283;48.504;13.734;2023-12-14T08:55:59;0.82;;;0.80;;
16346;SDS011;8283;48.504;13.734;2023-12-14T08:58:18;3.70;;;2.20;;
16346;SDS011;8283;48.504;13.734;2023-12-14T09:00:38;4.65;;;2.42;;
16346;SDS011;8283;48.504;13.734;2023-12-14T09:02:57;2.05;;;1.60;;
16346;SDS011;8283;48.504;13.734;2023-12-14T09:05:17;1.75;;;1.35;;
16346;SDS011;8283;48.504;13.734;2023-12-14T09:07:38;1.45;;;1.15;;
16346;SDS011;8283;48.504;13.734;2023-12-14T09:09:58;1.30;;;1.20;;
16346;SDS011;8283;48.504;13.734;2023-12-14T09:12:17;1.45;;;1.10;;
16346;SDS011;8283;48.504;13.734;2023-12-14T09:14:36;2.67;;;1.90;;
16346;SDS011;8283;48.504;13.734;2023-12-14T09:16:55;4.22;;;2.83;;
16346;SDS011;8283;48.504;13.734;2023-12-14T09:19:15;2.03;;;1.75;;
16346;SDS011;8283;48.504;13.734;2023-12-14T09:21:34;3.67;;;3.25;;
16346;SDS011;8283;48.504;13.734;2023-12-14T09:23:53;4.88;;;2.85;;
16346;SDS011;8283;48.504;13.734;2023-12-14T09:26:13;1.27;;;1.08;;
16346;SDS011;8283;48.504;13.734;2023-12-14T09:28:33;2.00;;;1.05;;
16346;SDS011;8283;48.504;13.734;2023-12-14T09:30:53;1.00;;;0.80;;
16346;SDS011;8283;48.504;13.734;2023-12-14T09:33:12;1.92;;;1.10;;
16346;SDS011;8283;48.504;13.734;2023-12-14T09:35:31;1.55;;;0.60;;
16346;SDS011;8283;48.504;13.734;2023-12-14T09:37:51;1.17;;;0.93;;
16346;SDS011;8283;48.504;13.734;2023-12-14T09:40:10;1.17;;;0.90;;
16346;SDS011;8283;48.504;13.734;2023-12-14T09:42:33;1.73;;;0.98;;
16346;SDS011;8283;48.504;13.734;2023-12-14T09:44:57;1.33;;;1.00;;
16346;SDS011;8283;48.504;13.734;2023-12-14T09:47:16;1.65;;;1.20;;
16346;SDS011;8283;48.504;13.734;2023-12-14T09:49:36;2.83;;;1.73;;
16346;SDS011;8283;48.504;13.734;2023-12-14T09:51:57;1.80;;;1.70;;
16346;SDS011;8283;48.504;13.734;2023-12-14T09:54:17;2.50;;;1.83;;
16346;SDS011;8283;48.504;13.734;2023-12-14T09:56:36;3.13;;;2.40;;
16346;SDS011;8283;48.504;13.734;2023-12-14T09:59:06;3.88;;;2.47;;
16346;SDS011;8283;48.504;13.734;2023-12-14T10:01:26;3.35;;;2.35;;
16346;SDS011;8283;48.504;13.734;2023-12-14T10:03:46;5.38;;;3.78;;
16346;SDS011;8283;48.504;13.734;2023-12-14T10:06:05;5.22;;;3.47;;
16346;SDS011;8283;48.504;13.734;2023-12-14T10:08:25;4.63;;;3.22;;
16346;SDS011;8283;48.504;13.734;2023-12-14T10:10:46;4.63;;;3.78;;
16346;SDS011;8283;48.504;13.734;2023-12-14T10:13:11;5.18;;;3.88;;
16346;SDS011;8283;48.504;13.734;2023-12-14T10:15:39;5.97;;;3.50;;
16346;SDS011;8283;48.504;13.734;2023-12-14T10:18:06;5.93;;;4.55;;
16346;SDS011;8283;48.504;13.734;2023-12-14T10:20:25;5.35;;;3.63;;
16346;SDS011;8283;48.504;13.734;2023-12-14T10:22:44;4.70;;;3.80;;
16346;SDS011;8283;48.504;13.734;2023-12-14T10:25:04;5.15;;;4.00;;
16346;SDS011;8283;48.504;13.734;2023-12-14T10:27:29;5.28;;;3.55;;
16346;SDS011;8283;48.504;13.734;2023-12-14T10:29:50;3.88;;;3.30;;
16346;SDS011;8283;48.504;13.734;2023-12-14T10:32:09;5.25;;;3.72;;
16346;SDS011;8283;48.504;13.734;2023-12-14T10:34:30;4.88;;;4.13;;
16346;SDS011;8283;48.504;13.734;2023-12-14T10:36:49;8.82;;;3.88;;
16346;SDS011;8283;48.504;13.734;2023-12-14T10:39:09;3.58;;;3.28;;
16346;SDS011;8283;48.504;13.734;2023-12-14T10:41:34;4.22;;;3.10;;
16346;SDS011;8283;48.504;13.734;2023-12-14T10:43:55;4.90;;;3.13;;
16346;SDS011;8283;48.504;13.734;2023-12-14T10:46:15;4.53;;;3.42;;
16346;SDS011;8283;48.504;13.734;2023-12-14T10:48:35;4.47;;;3.00;;
16346;SDS011;8283;48.504;13.734;2023-12-14T10:51:01;4.80;;;3.17;;
16346;SDS011;8283;48.504;13.734;2023-12-14T10:53:21;4.40;;;2.95;;
16346;SDS011;8283;48.504;13.734;2023-12-14T10:55:41;3.72;;;2.30;;
16346;SDS011;8283;48.504;13.734;2023-12-14T10:58:03;3.45;;;2.78;;
16346;SDS011;8283;48.504;13.734;2023-12-14T11:00:23;4.43;;;2.80;;
16346;SDS011;8283;48.504;13.734;2023-12-14T11:02:45;3.25;;;2.90;;
16346;SDS011;8283;48.504;13.734;2023-12-14T11:05:05;4.93;;;3.33;;
16346;SDS011;8283;48.504;13.734;2023-12-14T11:07:43;3.75;;;2.90;;
16346;SDS011;8283;48.504;13.734;2023-12-14T11:10:13;3.25;;;2.63;;
16346;SDS011;8283;48.504;13.734;2023-12-14T11:12:34;3.43;;;2.90;;
16346;SDS011;8283;48.504;13.734;2023-12-14T11:14:53;2.58;;;2.35;;
16346;SDS011;8283;48.504;13.734;2023-12-14T11:17:13;3.92;;;2.63;;
16346;SDS011;8283;48.504;13.734;2023-12-14T11:19:33;3.42;;;2.40;;
16346;SDS011;8283;48.504;13.734;2023-12-14T11:24:27;2.80;;;2.10;;
16346;SDS011;8283;48.504;13.734;2023-12-14T11:26:46;3.25;;;2.17;;
16346;SDS011;8283;48.504;13.734;2023-12-14T11:29:08;3.42;;;1.80;;
16346;SDS011;8283;48.504;13.734;2023-12-14T11:31:27;3.33;;;2.25;;
16346;SDS011;8283;48.504;13.734;2023-12-14T11:33:47;2.83;;;2.03;;
16346;SDS011;8283;48.504;13.734;2023-12-14T11:36:07;3.55;;;2.30;;
16346;SDS011;8283;48.504;13.734;2023-12-14T11:38:27;4.05;;;2.35;;
16346;SDS011;8283;48.504;13.734;2023-12-14T11:40:47;2.83;;;2.47;;
16346;SDS011;8283;48.504;13.734;2023-12-14T11:43:08;3.10;;;2.30;;
16346;SDS011;8283;48.504;13.734;2023-12-14T11:45:28;2.80;;;2.50;;
16346;SDS011;8283;48.504;13.734;2023-12-14T11:47:47;3.95;;;2.50;;
16346;SDS011;8283;48.504;13.734;2023-12-14T11:50:07;2.97;;;2.30;;
16346;SDS011;8283;48.504;13.734;2023-12-14T11:54:47;3.60;;;2.20;;
16346;SDS011;8283;48.504;13.734;2023-12-14T11:57:06;2.10;;;1.90;;
16346;SDS011;8283;48.504;13.734;2023-12-14T11:59:28;2.38;;;1.98;;
16346;SDS011;8283;48.504;13.734;2023-12-14T12:01:57;2.28;;;1.98;;
16346;SDS011;8283;48.504;13.734;2023-12-14T12:04:17;2.42;;;2.20;;
16346;SDS011;8283;48.504;13.734;2023-12-14T12:06:38;3.10;;;1.90;;
16346;SDS011;8283;48.504;13.734;2023-12-14T12:08:58;3.35;;;2.20;;
16346;SDS011;8283;48.504;13.734;2023-12-14T12:11:18;2.60;;;1.90;;
16346;SDS011;8283;48.504;13.734;2023-12-14T12:15:58;2.47;;;1.67;;
16346;SDS011;8283;48.504;13.734;2023-12-14T12:18:18;3.95;;;2.60;;
16346;SDS011;8283;48.504;13.734;2023-12-14T12:20:37;4.53;;;3.03;;
16346;SDS011;8283;48.504;13.734;2023-12-14T12:22:58;3.60;;;2.63;;
16346;SDS011;8283;48.504;13.734;2023-12-14T12:25:17;3.42;;;2.22;;
16346;SDS011;8283;48.504;13.734;2023-12-14T12:27:37;5.60;;;2.95;;
16346;SDS011;8283;48.504;13.734;2023-12-14T12:29:56;3.60;;;2.63;;
16346;SDS011;8283;48.504;13.734;2023-12-14T12:32:16;3.53;;;2.65;;
16346;SDS011;8283;48.504;13.734;2023-12-14T12:34:35;6.20;;;2.92;;
16346;SDS011;8283;48.504;13.734;2023-12-14T12:36:54;4.13;;;3.15;;
16346;SDS011;8283;48.504;13.734;2023-12-14T12:39:16;5.70;;;3.22;;
16346;SDS011;8283;48.504;13.734;2023-12-14T12:41:36;4.88;;;3.33;;
16346;SDS011;8283;48.504;13.734;2023-12-14T12:43:56;4.88;;;3.60;;
16346;SDS011;8283;48.504;13.734;2023-12-14T12:46:16;5.00;;;3.43;;
16346;SDS011;8283;48.504;13.734;2023-12-14T12:48:36;4.28;;;3.33;;
16346;SDS011;8283;48.504;13.734;2023-12-14T12:50:55;4.68;;;3.28;;
16346;SDS011;8283;48.504;13.734;2023-12-14T12:53:15;3.45;;;2.97;;
16346;SDS011;8283;48.504;13.734;2023-12-14T12:55:34;3.78;;;3.15;;
16346;SDS011;8283;48.504;13.734;2023-12-14T12:57:53;3.80;;;3.00;;
16346;SDS011;8283;48.504;13.734;2023-12-14T13:00:13;3.70;;;2.70;;
16346;SDS011;8283;48.504;13.734;2023-12-14T13:02:32;3.67;;;3.13;;
16346;SDS011;8283;48.504;13.734;2023-12-14T13:04:53;4.35;;;2.78;;
16346;SDS011;8283;48.504;13.734;2023-12-14T13:07:12;7.07;;;3.55;;
16346;SDS011;8283;48.504;13.734;2023-12-14T13:09:31;5.40;;;3.95;;
16346;SDS011;8283;48.504;13.734;2023-12-14T13:11:50;5.05;;;3.38;;
16346;SDS011;8283;48.504;13.734;2023-12-14T13:14:10;5.45;;;3.72;;
16346;SDS011;8283;48.504;13.734;2023-12-14T13:16:29;10.27;;;3.60;;
16346;SDS011;8283;48.504;13.734;2023-12-14T13:18:49;4.35;;;3.40;;
16346;SDS011;8283;48.504;13.734;2023-12-14T13:21:08;4.68;;;3.22;;
16346;SDS011;8283;48.504;13.734;2023-12-14T13:23:27;5.40;;;3.50;;
16346;SDS011;8283;48.504;13.734;2023-12-14T13:25:47;5.53;;;3.30;;
16346;SDS011;8283;48.504;13.734;2023-12-14T13:28:06;3.58;;;2.97;;
16346;SDS011;8283;48.504;13.734;2023-12-14T13:30:26;4.93;;;3.45;;
16346;SDS011;8283;48.504;13.734;2023-12-14T13:32:45;3.40;;;3.05;;
16346;SDS011;8283;48.504;13.734;2023-12-14T13:35:05;4.20;;;2.85;;
16346;SDS011;8283;48.504;13.734;2023-12-14T13:37:24;4.75;;;3.40;;
16346;SDS011;8283;48.504;13.734;2023-12-14T13:39:43;5.32;;;3.45;;
16346;SDS011;8283;48.504;13.734;2023-12-14T13:42:04;3.78;;;3.20;;
16346;SDS011;8283;48.504;13.734;2023-12-14T13:44:25;6.53;;;3.08;;
16346;SDS011;8283;48.504;13.734;2023-12-14T13:46:44;4.03;;;3.50;;
16346;SDS011;8283;48.504;13.734;2023-12-14T13:49:03;5.60;;;3.90;;
16346;SDS011;8283;48.504;13.734;2023-12-14T13:51:23;5.28;;;3.40;;
16346;SDS011;8283;48.504;13.734;2023-12-14T13:53:42;4.40;;;3.38;;
16346;SDS011;8283;48.504;13.734;2023-12-14T13:56:02;4.55;;;4.15;;
16346;SDS011;8283;48.504;13.734;2023-12-14T13:58:21;4.25;;;3.25;;
16346;SDS011;8283;48.504;13.734;2023-12-14T14:00:41;5.22;;;3.45;;
16346;SDS011;8283;48.504;13.734;2023-12-14T14:03:01;4.32;;;3.35;;
16346;SDS011;8283;48.504;13.734;2023-12-14T14:05:22;6.78;;;3.70;;
16346;SDS011;8283;48.504;13.734;2023-12-14T14:07:42;5.13;;;3.53;;
16346;SDS011;8283;48.504;13.734;2023-12-14T14:10:02;3.42;;;3.13;;
16346;SDS011;8283;48.504;13.734;2023-12-14T14:12:22;4.65;;;3.40;;
16346;SDS011;8283;48.504;13.734;2023-12-14T14:14:41;6.07;;;4.15;;